Time;durP1;ratioP1;P1;durP2;ratioP2;P2;SDS_P1;SDS_P2;PMS_P1;PMS_P2;Temp;Humidity;BMP_temperature;BMP_pressure;BME280_temperature;BME280_humidity;BME280_pressure;Samples;Min_cycle;Max_cycle;Signal;HPM_P1;HPM_P2
2022/11/08 00:01:52;;;;;;;4.45;4.05;;;9.90;99.90;;;;;;4996186;28;20241;-69
2022/11/08 00:04:18;;;;;;;4.50;3.97;;;9.70;99.90;;;;;;4990583;28;20371;-69
2022/11/08 00:14:59;;;;;;;5.32;4.50;;;9.50;99.90;;;;;;4994572;28;20253;-68
2022/11/08 00:17:27;;;;;;;5.18;4.68;;;9.60;99.90;;;;;;4994419;28;20188;-68
2022/11/08 00:19:53;;;;;;;5.40;4.60;;;9.60;99.90;;;;;;4986537;28;20282;-69
2022/11/08 00:22:19;;;;;;;4.90;4.37;;;9.60;99.90;;;;;;4999031;28;20187;-68
2022/11/08 00:24:45;;;;;;;5.30;4.60;;;9.70;99.90;;;;;;5002546;28;20929;-68
2022/11/08 00:27:13;;;;;;;5.70;4.80;;;9.50;99.90;;;;;;4999631;28;20556;-68
2022/11/08 00:29:38;;;;;;;8.13;5.00;;;9.60;99.90;;;;;;4997394;28;20188;-68
2022/11/08 00:32:06;;;;;;;6.60;4.87;;;9.60;99.90;;;;;;4993800;28;20604;-68
2022/11/08 00:34:33;;;;;;;7.32;4.90;;;9.40;99.90;;;;;;4994131;28;20470;-68
2022/11/08 00:36:59;;;;;;;5.70;5.10;;;9.60;99.90;;;;;;4991955;28;20243;-68
2022/11/08 00:39:25;;;;;;;5.85;5.25;;;9.60;99.90;;;;;;4975103;28;20218;-68
2022/11/08 00:41:50;;;;;;;5.90;5.17;;;9.60;99.90;;;;;;4984109;28;20215;-68
2022/11/08 00:44:16;;;;;;;9.50;5.03;;;9.30;99.90;;;;;;4993965;28;20184;-68
2022/11/08 00:46:42;;;;;;;9.07;5.60;;;9.20;99.90;;;;;;4993454;28;20298;-69
2022/11/08 00:49:08;;;;;;;5.35;4.85;;;9.20;99.90;;;;;;4992689;28;20242;-68
2022/11/08 00:51:34;;;;;;;5.70;5.17;;;9.50;99.90;;;;;;4990844;28;20213;-68
2022/11/08 00:53:59;;;;;;;5.80;5.30;;;9.30;99.90;;;;;;4992915;28;20508;-68
2022/11/08 00:56:25;;;;;;;5.97;5.40;;;9.30;99.90;;;;;;4993384;28;20484;-69
2022/11/08 00:58:51;;;;;;;5.00;4.55;;;9.30;99.90;;;;;;4989852;28;20199;-69
2022/11/08 01:01:19;;;;;;;5.50;4.90;;;9.20;99.90;;;;;;4974576;28;20623;-69
2022/11/08 01:03:46;;;;;;;5.78;5.28;;;9.30;99.90;;;;;;4993909;28;20188;-68
2022/11/08 01:06:13;;;;;;;5.38;4.63;;;9.10;99.90;;;;;;4992829;28;20618;-68
2022/11/08 01:08:39;;;;;;;5.70;5.10;;;9.20;99.90;;;;;;4990785;28;20298;-68
2022/11/08 01:11:08;;;;;;;9.57;5.50;;;9.00;99.90;;;;;;4975186;28;20188;-68
2022/11/08 01:13:34;;;;;;;5.88;4.97;;;9.00;99.90;;;;;;4991759;28;20207;-69
2022/11/08 01:16:09;;;;;;;5.65;4.82;;;9.00;99.90;;;;;;4976270;28;20586;-68
2022/11/08 01:18:34;;;;;;;7.15;5.40;;;8.90;99.90;;;;;;4993951;28;20217;-69
2022/11/08 01:21:01;;;;;;;7.50;4.57;;;9.10;99.90;;;;;;5000974;28;20661;-67
2022/11/08 01:23:27;;;;;;;7.45;4.72;;;8.60;99.90;;;;;;4992746;28;20461;-68
2022/11/08 01:25:53;;;;;;;6.50;5.13;;;8.80;99.90;;;;;;4998886;28;20659;-68
2022/11/08 01:28:18;;;;;;;5.70;5.17;;;9.00;99.90;;;;;;4987966;28;20273;-68
2022/11/08 01:30:45;;;;;;;5.53;5.00;;;8.90;99.90;;;;;;4986466;28;20714;-68
2022/11/08 01:33:12;;;;;;;6.72;5.20;;;8.70;99.90;;;;;;5003823;28;20186;-68
2022/11/08 01:35:38;;;;;;;5.40;4.90;;;9.00;99.90;;;;;;4989054;28;20291;-67
2022/11/08 01:38:05;;;;;;;7.85;5.00;;;9.00;99.90;;;;;;4988859;28;20196;-68
2022/11/08 01:40:31;;;;;;;5.45;4.95;;;8.80;99.90;;;;;;4993146;28;20274;-68
2022/11/08 01:42:57;;;;;;;6.18;4.68;;;9.00;99.90;;;;;;4992369;28;20195;-68
2022/11/08 01:46:13;;;;;;;5.53;5.05;;;9.10;99.90;;;;;;4992436;28;20208;-68
2022/11/08 01:49:03;;;;;;;5.55;4.80;;;9.00;99.90;;;;;;4986825;28;20211;-67
2022/11/08 01:51:46;;;;;;;6.45;4.95;;;8.80;99.90;;;;;;4991669;28;20200;-68
2022/11/08 01:54:17;;;;;;;5.65;5.15;;;9.10;99.90;;;;;;4984846;28;20187;-68
2022/11/08 01:56:43;;;;;;;5.57;4.97;;;8.70;99.90;;;;;;4988891;28;20211;-68
2022/11/08 01:59:11;;;;;;;5.40;4.90;;;9.00;99.90;;;;;;4991964;28;20215;-68
2022/11/08 02:01:37;;;;;;;5.65;4.90;;;8.80;99.90;;;;;;4991528;28;20727;-68
2022/11/08 02:04:03;;;;;;;5.38;4.72;;;8.70;99.90;;;;;;4992590;28;20251;-68
2022/11/08 02:06:32;;;;;;;4.80;4.40;;;8.80;99.90;;;;;;4990984;28;20211;-68
2022/11/08 02:09:01;;;;;;;5.70;4.80;;;8.80;99.90;;;;;;4989754;28;20215;-68
2022/11/08 02:11:28;;;;;;;4.60;4.20;;;8.60;99.90;;;;;;4980124;28;20645;-68
2022/11/08 02:13:54;;;;;;;6.43;4.90;;;8.80;99.90;;;;;;4992578;28;20195;-68
2022/11/08 02:16:20;;;;;;;5.47;4.65;;;8.60;99.90;;;;;;4992100;28;20214;-68
2022/11/08 02:18:47;;;;;;;6.17;5.17;;;8.80;99.90;;;;;;4992158;28;20200;-68
2022/11/08 02:21:18;;;;;;;10.77;5.65;;;8.80;99.90;;;;;;4992744;28;20184;-68
2022/11/08 02:23:47;;;;;;;4.95;4.40;;;8.80;99.90;;;;;;4990908;28;20190;-68
2022/11/08 02:26:15;;;;;;;4.68;4.28;;;8.90;99.90;;;;;;4967183;28;20220;-68
2022/11/08 02:28:43;;;;;;;4.88;4.32;;;8.80;99.90;;;;;;4990583;28;20208;-68
2022/11/08 02:31:10;;;;;;;5.40;4.70;;;8.90;99.90;;;;;;4992399;28;20188;-69
2022/11/08 02:34:06;;;;;;;6.20;4.70;;;8.70;99.90;;;;;;4993744;28;20191;-68
2022/11/08 02:36:31;;;;;;;5.00;4.57;;;8.70;99.90;;;;;;4984974;28;20203;-68
2022/11/08 02:38:57;;;;;;;5.00;4.33;;;8.70;99.90;;;;;;4991807;28;20195;-68
2022/11/08 02:41:23;;;;;;;5.93;4.97;;;8.90;99.90;;;;;;4989968;28;20184;-69
2022/11/08 02:43:48;;;;;;;4.73;4.33;;;8.60;99.90;;;;;;4985701;28;20197;-69
2022/11/08 02:46:14;;;;;;;8.50;5.20;;;8.40;99.90;;;;;;4985398;28;20629;-68
2022/11/08 02:48:40;;;;;;;5.80;4.70;;;8.50;99.90;;;;;;4990452;28;20297;-68
2022/11/08 02:51:05;;;;;;;5.90;4.70;;;8.40;99.90;;;;;;4988382;28;20799;-69
2022/11/08 02:53:31;;;;;;;5.03;4.07;;;8.50;99.90;;;;;;4989973;28;20832;-68
2022/11/08 02:55:57;;;;;;;4.50;4.10;;;8.50;99.90;;;;;;4990128;28;20199;-68
2022/11/08 02:58:22;;;;;;;5.27;4.60;;;8.80;99.90;;;;;;4988898;28;20893;-68
2022/11/08 03:00:48;;;;;;;9.00;4.80;;;8.60;99.90;;;;;;4983816;28;20204;-68
2022/11/08 03:03:14;;;;;;;4.90;4.50;;;8.70;99.90;;;;;;4990451;28;20186;-68
2022/11/08 03:05:41;;;;;;;4.33;3.90;;;8.20;99.90;;;;;;4994129;28;20230;-66
2022/11/08 03:08:07;;;;;;;4.65;3.80;;;8.70;99.90;;;;;;4989853;28;20207;-69
2022/11/08 03:10:32;;;;;;;3.90;3.60;;;8.70;99.90;;;;;;4999644;28;20545;-68
2022/11/08 03:12:59;;;;;;;4.57;3.90;;;8.50;99.90;;;;;;4999645;28;20199;-68
2022/11/08 03:15:25;;;;;;;4.43;3.80;;;8.60;99.90;;;;;;5001675;28;20247;-68
2022/11/08 03:17:51;;;;;;;4.20;3.80;;;8.60;99.90;;;;;;4989787;28;20591;-69
2022/11/08 03:20:17;;;;;;;4.10;3.80;;;8.50;99.90;;;;;;4986987;28;20456;-68
2022/11/08 03:22:44;;;;;;;4.70;4.30;;;8.50;99.90;;;;;;4994515;28;21017;-68
2022/11/08 03:25:09;;;;;;;5.05;4.07;;;8.50;99.90;;;;;;4997623;28;20459;-68
2022/11/08 03:27:36;;;;;;;5.17;3.90;;;8.50;99.90;;;;;;4992292;28;20215;-68
2022/11/08 03:30:02;;;;;;;3.67;3.38;;;8.40;99.90;;;;;;4986893;28;20608;-67
2022/11/08 03:32:27;;;;;;;3.75;3.45;;;8.40;99.90;;;;;;4989786;28;20556;-67
2022/11/08 03:34:53;;;;;;;5.33;4.13;;;8.50;99.90;;;;;;4994797;28;20184;-68
2022/11/08 03:37:18;;;;;;;4.07;3.67;;;8.40;99.90;;;;;;4997450;28;20679;-67
2022/11/08 03:39:44;;;;;;;4.70;3.93;;;8.40;99.90;;;;;;5000675;28;20699;-67
2022/11/08 03:42:09;;;;;;;4.47;4.00;;;8.40;99.90;;;;;;4997962;28;20183;-68
2022/11/08 03:44:35;;;;;;;4.40;4.00;;;8.50;99.90;;;;;;4995549;28;20191;-67
2022/11/08 03:47:01;;;;;;;7.10;4.50;;;8.30;99.90;;;;;;4997803;28;20211;-68
2022/11/08 03:49:26;;;;;;;6.23;4.30;;;8.10;99.90;;;;;;4996106;28;20661;-67
2022/11/08 03:51:53;;;;;;;4.50;4.10;;;8.40;99.90;;;;;;4993639;28;20184;-67
2022/11/08 03:54:19;;;;;;;4.75;4.35;;;8.40;99.90;;;;;;4995580;28;20187;-67
2022/11/08 03:56:44;;;;;;;7.07;4.33;;;8.00;99.90;;;;;;4976483;28;20218;-67
2022/11/08 03:59:11;;;;;;;4.30;4.00;;;7.90;99.90;;;;;;5005137;28;20445;-68
2022/11/08 04:01:37;;;;;;;4.35;3.95;;;8.30;99.90;;;;;;4987858;28;20192;-68
2022/11/08 04:04:04;;;;;;;7.45;4.60;;;8.00;99.90;;;;;;5007692;28;20190;-68
2022/11/08 04:06:29;;;;;;;4.78;4.25;;;8.00;99.90;;;;;;4997608;28;20207;-68
2022/11/08 04:08:57;;;;;;;5.83;4.00;;;8.00;99.90;;;;;;5003855;28;20212;-67
2022/11/08 04:17:11;;;;;;;4.78;4.38;;;7.90;99.90;;;;;;4933492;29;20666;-68
2022/11/08 04:22:21;;;;;;;7.35;4.40;;;7.90;99.90;;;;;;4994254;28;20218;-67
2022/11/08 04:24:46;;;;;;;5.00;4.50;;;7.70;99.90;;;;;;4993340;28;20207;-68
2022/11/08 04:27:12;;;;;;;5.17;4.37;;;7.90;99.90;;;;;;4995587;28;20187;-68
2022/11/08 04:29:37;;;;;;;5.50;3.97;;;7.90;99.90;;;;;;4998443;28;20514;-67
2022/11/08 04:32:03;;;;;;;3.97;3.50;;;7.60;99.90;;;;;;4994646;28;20186;-67
2022/11/08 04:34:29;;;;;;;5.33;4.40;;;7.60;99.90;;;;;;4977651;28;20235;-68
2022/11/08 04:36:54;;;;;;;4.43;3.88;;;7.60;99.90;;;;;;4995879;28;20684;-68
2022/11/08 04:39:20;;;;;;;7.20;3.83;;;7.70;99.90;;;;;;4994618;28;20222;-68
2022/11/08 04:41:46;;;;;;;4.60;3.93;;;7.50;99.90;;;;;;4994947;28;20199;-68
2022/11/08 04:44:14;;;;;;;4.97;4.03;;;7.90;99.90;;;;;;4997158;28;20687;-68
2022/11/08 04:46:39;;;;;;;4.35;3.95;;;7.70;99.90;;;;;;4988970;28;20212;-68
2022/11/08 04:49:05;;;;;;;4.60;3.47;;;7.80;99.90;;;;;;4992196;28;20274;-69
2022/11/08 04:51:32;;;;;;;5.03;3.83;;;7.70;99.90;;;;;;4987860;28;20203;-68
2022/11/08 04:53:59;;;;;;;5.13;3.53;;;7.80;99.90;;;;;;4980283;28;20691;-68
2022/11/08 04:56:26;;;;;;;4.10;3.80;;;7.70;99.90;;;;;;4989081;28;20270;-69
2022/11/08 04:58:54;;;;;;;4.68;3.60;;;7.80;99.90;;;;;;4983580;28;20194;-68
2022/11/08 05:01:23;;;;;;;4.68;4.28;;;7.70;99.90;;;;;;4989857;28;20188;-68
2022/11/08 05:03:50;;;;;;;4.95;3.92;;;7.80;99.90;;;;;;4993859;28;20195;-68
2022/11/08 05:06:28;;;;;;;4.47;4.07;;;7.70;99.90;;;;;;4986328;28;20215;-68
2022/11/08 05:08:57;;;;;;;4.50;4.10;;;7.70;99.90;;;;;;4993274;28;20695;-68
2022/11/08 05:11:25;;;;;;;4.38;3.97;;;7.80;99.90;;;;;;4989737;28;20188;-70
2022/11/08 05:13:52;;;;;;;7.40;3.97;;;7.70;99.90;;;;;;4992077;28;20621;-68
2022/11/08 05:16:23;;;;;;;3.50;3.20;;;7.40;99.90;;;;;;4992852;28;20207;-68
2022/11/08 05:18:49;;;;;;;5.65;3.50;;;7.80;99.90;;;;;;4988264;28;20184;-68
2022/11/08 05:24:02;;;;;;;4.45;3.67;;;7.90;99.90;;;;;;4992467;28;20442;-68
2022/11/08 05:26:29;;;;;;;5.15;4.28;;;7.80;99.90;;;;;;4989988;28;20227;-68
2022/11/08 05:28:54;;;;;;;4.60;3.65;;;7.70;99.90;;;;;;4991798;28;20207;-68
2022/11/08 05:31:20;;;;;;;4.30;3.90;;;7.80;99.90;;;;;;4988575;28;21036;-68
2022/11/08 05:33:46;;;;;;;6.80;5.93;;;7.20;99.90;;;;;;4992346;28;20188;-68
2022/11/08 05:36:13;;;;;;;7.53;4.15;;;7.60;99.90;;;;;;5002545;28;20209;-69
2022/11/08 05:38:40;;;;;;;4.50;3.80;;;7.60;99.90;;;;;;5000055;28;20234;-68
2022/11/08 05:41:12;;;;;;;4.18;3.55;;;7.60;99.90;;;;;;4998717;28;20187;-66
2022/11/08 05:43:38;;;;;;;4.90;3.95;;;7.70;99.90;;;;;;4970190;28;20556;-68
2022/11/08 05:46:04;;;;;;;3.85;3.55;;;7.60;99.90;;;;;;4994829;28;20605;-68
2022/11/08 05:48:30;;;;;;;4.95;3.60;;;7.60;99.90;;;;;;4996090;28;20872;-68
2022/11/08 05:50:56;;;;;;;4.97;3.83;;;7.70;99.90;;;;;;4990222;28;20279;-67
2022/11/08 05:53:21;;;;;;;6.60;4.30;;;7.70;99.90;;;;;;4986812;28;20198;-68
2022/11/08 05:55:47;;;;;;;5.10;3.93;;;8.40;99.90;;;;;;4995001;28;20278;-68
2022/11/08 05:58:13;;;;;;;5.47;4.23;;;7.80;99.90;;;;;;5001581;28;20430;-68
2022/11/08 06:00:39;;;;;;;5.80;3.80;;;7.60;99.90;;;;;;4990707;28;20459;-68
2022/11/08 06:03:05;;;;;;;5.77;5.17;;;7.80;99.90;;;;;;4992768;28;20421;-67
2022/11/08 06:05:31;;;;;;;6.60;4.67;;;7.90;99.90;;;;;;4991288;28;20590;-67
2022/11/08 06:07:57;;;;;;;4.10;3.70;;;8.00;99.90;;;;;;4992467;28;20437;-68
2022/11/08 06:10:23;;;;;;;5.43;4.03;;;7.80;99.90;;;;;;4992259;28;20222;-68
2022/11/08 06:12:48;;;;;;;4.57;4.00;;;7.80;99.90;;;;;;4990827;28;20294;-68
2022/11/08 06:15:14;;;;;;;4.97;3.57;;;7.50;99.90;;;;;;4991826;28;20521;-68
2022/11/08 06:17:40;;;;;;;4.03;3.73;;;8.00;99.90;;;;;;4991128;28;20421;-67
2022/11/08 06:20:07;;;;;;;6.25;3.60;;;7.80;99.90;;;;;;4990981;28;20184;-67
2022/11/08 06:22:34;;;;;;;3.90;3.55;;;8.00;99.90;;;;;;4990363;28;20267;-68
2022/11/08 06:24:59;;;;;;;5.63;4.32;;;7.80;99.90;;;;;;4992918;28;20552;-68
2022/11/08 06:27:25;;;;;;;5.80;3.70;;;7.80;99.90;;;;;;4991078;28;20187;-68
2022/11/08 06:29:51;;;;;;;9.40;5.80;;;7.90;99.90;;;;;;4997648;28;20184;-68
2022/11/08 06:32:17;;;;;;;4.40;3.77;;;8.10;99.90;;;;;;4994195;28;20484;-68
2022/11/08 06:34:44;;;;;;;6.63;4.10;;;7.80;99.90;;;;;;4996604;28;20535;-69
2022/11/08 06:37:11;;;;;;;7.18;4.65;;;7.80;99.90;;;;;;4991363;28;20196;-67
2022/11/08 06:39:36;;;;;;;5.88;5.28;;;8.10;99.90;;;;;;4998841;28;20191;-68
2022/11/08 06:42:02;;;;;;;6.03;3.90;;;7.80;99.90;;;;;;4977194;28;20692;-66
2022/11/08 06:44:28;;;;;;;4.90;4.40;;;7.80;99.90;;;;;;4985813;28;20187;-67
2022/11/08 06:46:56;;;;;;;5.80;4.30;;;7.80;99.90;;;;;;4989589;28;20499;-70
2022/11/08 06:49:23;;;;;;;8.02;4.20;;;8.20;99.90;;;;;;4990873;28;20227;-70
2022/11/08 06:51:50;;;;;;;9.40;4.72;;;7.90;99.90;;;;;;4976656;28;20202;-70
2022/11/08 06:54:16;;;;;;;3.97;3.67;;;7.90;99.90;;;;;;4992630;28;20607;-71
2022/11/08 06:56:42;;;;;;;5.97;4.40;;;8.10;99.90;;;;;;4991785;28;20215;-71
2022/11/08 06:59:08;;;;;;;6.20;5.47;;;8.10;99.90;;;;;;4979412;28;20230;-69
2022/11/08 07:01:35;;;;;;;5.22;4.25;;;8.20;99.90;;;;;;4989704;28;20187;-69
2022/11/08 07:04:01;;;;;;;6.28;4.20;;;8.10;99.90;;;;;;4988576;28;21693;-69
2022/11/08 07:06:27;;;;;;;5.70;4.35;;;8.00;99.90;;;;;;4985938;28;20235;-68
2022/11/08 07:08:52;;;;;;;4.90;4.47;;;8.30;99.90;;;;;;4986190;28;20259;-68
2022/11/08 07:11:18;;;;;;;6.40;4.57;;;8.70;99.90;;;;;;4989376;28;20180;-68
2022/11/08 07:13:44;;;;;;;6.07;4.87;;;8.70;99.90;;;;;;4991136;28;20641;-70
2022/11/08 07:16:10;;;;;;;6.30;4.30;;;8.80;99.90;;;;;;4992472;28;20208;-72
2022/11/08 07:18:35;;;;;;;6.17;4.50;;;8.80;99.90;;;;;;4989576;28;20527;-70
2022/11/08 07:21:01;;;;;;;5.67;5.10;;;8.80;99.90;;;;;;4994264;28;20864;-71
2022/11/08 07:23:27;;;;;;;6.45;3.80;;;9.10;99.90;;;;;;4990856;28;20885;-69
2022/11/08 07:25:53;;;;;;;4.53;4.13;;;9.20;99.90;;;;;;4972958;28;20554;-70
2022/11/08 07:28:19;;;;;;;5.80;4.53;;;9.40;99.90;;;;;;4990975;28;20223;-68
2022/11/08 07:30:47;;;;;;;4.43;4.00;;;9.80;99.90;;;;;;4998614;28;20451;-67
2022/11/08 07:33:14;;;;;;;6.75;4.50;;;9.80;99.90;;;;;;4991732;28;20226;-69
2022/11/08 07:35:40;;;;;;;4.35;3.95;;;10.10;99.90;;;;;;4981060;28;20222;-68
2022/11/08 07:38:06;;;;;;;4.90;4.40;;;10.10;99.90;;;;;;4989362;28;20188;-68
2022/11/08 07:40:34;;;;;;;5.75;4.55;;;10.20;99.90;;;;;;4992290;28;20224;-69
2022/11/08 07:43:00;;;;;;;6.43;4.80;;;9.80;99.90;;;;;;4989660;28;20198;-68
2022/11/08 07:45:26;;;;;;;12.95;5.82;;;9.90;99.90;;;;;;4985700;28;20295;-67
2022/11/08 07:48:02;;;;;;;6.22;4.72;;;10.00;99.90;;;;;;4989964;28;20291;-68
2022/11/08 07:50:29;;;;;;;5.32;4.65;;;9.90;99.90;;;;;;4992311;28;20214;-70
2022/11/08 07:52:55;;;;;;;5.65;4.68;;;9.90;99.90;;;;;;4993142;28;20283;-70
2022/11/08 07:55:21;;;;;;;5.45;4.63;;;10.00;99.90;;;;;;4989481;28;20201;-71
2022/11/08 07:57:47;;;;;;;9.23;5.60;;;9.80;99.90;;;;;;4994402;28;20191;-64
2022/11/08 08:00:13;;;;;;;8.80;5.00;;;9.80;99.90;;;;;;4988633;28;20708;-62
2022/11/08 08:02:39;;;;;;;5.63;5.13;;;9.60;99.90;;;;;;4994887;28;21488;-64
2022/11/08 08:05:05;;;;;;;5.97;4.70;;;9.60;99.90;;;;;;4987734;28;20307;-78
2022/11/08 08:07:31;;;;;;;7.90;6.03;;;9.80;99.90;;;;;;4982882;28;20207;-77
2022/11/08 08:09:56;;;;;;;5.27;4.77;;;9.90;99.90;;;;;;4990659;28;20445;-74
2022/11/08 08:12:22;;;;;;;5.70;4.50;;;10.00;99.90;;;;;;4991486;28;20218;-73
2022/11/08 08:14:47;;;;;;;6.97;4.37;;;10.10;99.90;;;;;;4990285;28;20537;-78
2022/11/08 08:17:13;;;;;;;6.23;4.20;;;10.40;99.90;;;;;;4976187;28;20523;-72
2022/11/08 08:19:39;;;;;;;3.37;2.93;;;10.20;99.90;;;;;;5003318;28;20785;-74
2022/11/08 08:22:04;;;;;;;4.97;3.23;;;10.20;99.90;;;;;;4993976;28;20188;-72
2022/11/08 08:24:30;;;;;;;4.47;3.53;;;10.50;99.90;;;;;;4995004;28;20177;-78
2022/11/08 08:26:55;;;;;;;7.37;3.70;;;10.70;99.90;;;;;;4996299;28;20220;-64
2022/11/08 08:29:21;;;;;;;3.73;3.10;;;10.80;99.90;;;;;;4998729;28;20244;-64
2022/11/08 08:31:47;;;;;;;3.67;3.33;;;11.10;99.90;;;;;;4999577;28;20247;-64
2022/11/08 08:34:14;;;;;;;3.60;3.20;;;11.10;99.90;;;;;;4994893;28;20248;-64
2022/11/08 08:36:40;;;;;;;4.55;3.60;;;11.50;99.90;;;;;;5007479;28;20228;-67
2022/11/08 08:39:06;;;;;;;6.57;3.80;;;11.60;99.90;;;;;;5008777;28;20182;-68
2022/11/08 08:41:32;;;;;;;5.67;3.60;;;11.90;99.90;;;;;;5005265;28;20276;-66
2022/11/08 08:43:57;;;;;;;2.93;2.73;;;12.10;99.90;;;;;;4995677;28;20588;-68
2022/11/08 08:46:23;;;;;;;2.77;2.40;;;12.40;99.90;;;;;;4997017;28;20245;-67
2022/11/08 08:48:48;;;;;;;4.10;3.30;;;12.90;99.90;;;;;;4992951;28;20218;-68
2022/11/08 08:51:14;;;;;;;3.57;2.87;;;12.90;99.90;;;;;;4992125;28;20636;-73
2022/11/08 08:53:39;;;;;;;3.33;2.40;;;13.20;99.90;;;;;;4991634;28;20187;-72
2022/11/08 08:56:06;;;;;;;3.10;2.90;;;13.20;99.90;;;;;;4992673;28;20204;-73
2022/11/08 08:58:32;;;;;;;2.92;2.53;;;13.50;99.90;;;;;;4992770;28;20200;-70
2022/11/08 09:01:02;;;;;;;4.13;3.20;;;13.90;99.90;;;;;;4994424;28;20637;-69
2022/11/08 09:03:28;;;;;;;5.13;4.63;;;13.80;99.90;;;;;;4989746;28;20483;-70
2022/11/08 09:05:59;;;;;;;4.80;3.20;;;14.00;99.90;;;;;;4990963;28;20683;-70
2022/11/08 09:08:24;;;;;;;2.90;2.70;;;14.30;99.90;;;;;;4974787;28;20294;-71
2022/11/08 09:10:58;;;;;;;5.17;3.20;;;14.00;99.30;;;;;;4992235;28;20278;-78
2022/11/08 09:13:25;;;;;;;3.72;2.20;;;14.30;99.20;;;;;;4998623;28;20454;-69
2022/11/08 09:15:52;;;;;;;9.23;2.40;;;14.10;98.20;;;;;;4991010;28;20207;-71
2022/11/08 09:18:18;;;;;;;3.15;2.50;;;14.30;97.80;;;;;;4993337;28;20187;-70
2022/11/08 09:20:43;;;;;;;2.50;1.70;;;14.50;97.90;;;;;;5001427;28;20701;-68
2022/11/08 09:23:13;;;;;;;2.17;2.00;;;15.00;96.90;;;;;;4993783;28;20775;-69
2022/11/08 09:25:39;;;;;;;3.90;2.20;;;15.10;96.90;;;;;;4991517;28;20248;-68
2022/11/08 09:28:05;;;;;;;2.50;2.07;;;15.40;96.60;;;;;;4990768;28;20242;-68
2022/11/08 09:30:31;;;;;;;3.03;2.40;;;15.50;96.40;;;;;;4996750;28;20192;-74
2022/11/08 09:32:56;;;;;;;3.20;2.13;;;15.60;95.90;;;;;;4972823;28;20565;-72
2022/11/08 09:35:22;;;;;;;2.80;2.60;;;15.80;95.80;;;;;;4989954;28;20473;-71
2022/11/08 09:37:48;;;;;;;5.70;3.13;;;15.60;96.20;;;;;;4994521;28;20188;-73
2022/11/08 09:40:32;;;;;;;4.00;2.50;;;15.60;97.00;;;;;;4974541;28;20229;-72
2022/11/08 09:43:15;;;;;;;3.10;2.50;;;15.40;96.40;;;;;;4991433;28;20654;-73
2022/11/08 09:45:45;;;;;;;4.18;2.63;;;15.20;96.00;;;;;;4990885;28;20210;-71
2022/11/08 09:48:34;;;;;;;2.63;2.42;;;15.30;96.50;;;;;;4992217;28;20213;-70
2022/11/08 09:51:10;;;;;;;2.25;2.00;;;15.50;96.00;;;;;;4990322;28;20188;-72
2022/11/08 09:53:56;;;;;;;2.65;2.15;;;15.60;96.10;;;;;;4992102;28;20225;-70
2022/11/08 09:56:34;;;;;;;2.30;2.10;;;16.00;95.60;;;;;;4989149;28;20226;-66
2022/11/08 09:59:18;;;;;;;2.10;1.50;;;16.30;94.40;;;;;;4990943;28;20188;-68
2022/11/08 10:01:44;;;;;;;3.40;1.80;;;16.60;93.10;;;;;;4988809;28;20315;-69
2022/11/08 10:04:17;;;;;;;2.93;2.10;;;16.70;92.80;;;;;;4990403;28;20278;-72
2022/11/08 10:07:05;;;;;;;2.35;1.65;;;17.00;93.50;;;;;;4969508;28;20202;-77
2022/11/08 10:09:49;;;;;;;1.60;1.50;;;16.90;92.60;;;;;;4996119;28;20302;-73
2022/11/08 10:12:33;;;;;;;1.63;1.52;;;17.10;92.00;;;;;;4993579;28;20191;-73
2022/11/08 10:14:58;;;;;;;4.95;1.67;;;16.80;91.10;;;;;;4979024;28;20191;-71
2022/11/08 10:17:38;;;;;;;2.13;1.40;;;16.80;91.10;;;;;;5008575;28;20189;-71
2022/11/08 10:20:49;;;;;;;3.25;1.50;;;16.90;90.80;;;;;;4996634;28;20317;-72
2022/11/08 10:23:27;;;;;;;1.98;1.67;;;16.80;90.90;;;;;;4911632;29;20190;-70
2022/11/08 10:25:56;;;;;;;1.60;1.50;;;17.10;91.60;;;;;;4911207;29;20252;-75
2022/11/08 10:28:31;;;;;;;3.35;1.70;;;17.00;91.20;;;;;;4965261;28;20250;-72
2022/11/08 10:30:58;;;;;;;1.52;1.30;;;17.00;91.00;;;;;;4989660;28;20210;-70
2022/11/08 10:33:44;;;;;;;3.05;1.80;;;17.20;90.70;;;;;;4992020;28;20191;-71
2022/11/08 10:36:17;;;;;;;2.22;1.60;;;17.00;90.50;;;;;;4974876;28;20759;-69
2022/11/08 10:39:10;;;;;;;2.83;1.70;;;16.90;90.50;;;;;;5004879;28;20201;-68
2022/11/08 10:42:00;;;;;;;2.83;1.70;;;16.80;90.60;;;;;;4999775;28;20625;-68
2022/11/08 10:44:27;;;;;;;3.13;1.90;;;16.90;90.80;;;;;;4993562;28;20192;-69
2022/11/08 10:46:56;;;;;;;3.30;2.20;;;17.00;91.00;;;;;;4987803;28;20644;-69
2022/11/08 10:49:27;;;;;;;2.13;1.70;;;17.10;91.30;;;;;;4987316;28;20582;-64
2022/11/08 10:51:55;;;;;;;2.05;1.52;;;16.80;90.80;;;;;;4998581;28;20258;-68
2022/11/08 10:54:42;;;;;;;2.15;1.83;;;17.00;90.90;;;;;;4985146;28;20262;-66
2022/11/08 10:57:15;;;;;;;2.45;2.20;;;17.30;90.80;;;;;;4993149;28;20199;-67
2022/11/08 10:59:42;;;;;;;2.90;2.45;;;17.20;90.70;;;;;;4992612;28;20183;-67
2022/11/08 11:02:34;;;;;;;3.58;2.08;;;17.60;90.90;;;;;;4991294;28;20557;-66
2022/11/08 11:05:21;;;;;;;2.63;2.00;;;17.40;90.70;;;;;;4986217;28;20199;-69
2022/11/08 11:07:59;;;;;;;2.15;1.60;;;17.60;90.70;;;;;;4992883;28;20270;-68
2022/11/08 11:10:40;;;;;;;2.85;2.25;;;17.40;90.60;;;;;;4995716;28;20365;-70
2022/11/08 11:13:08;;;;;;;3.50;1.80;;;17.80;90.80;;;;;;4968863;28;20582;-67
2022/11/08 11:15:57;;;;;;;2.70;2.00;;;17.70;90.60;;;;;;4997591;28;20631;-67
2022/11/08 11:18:22;;;;;;;2.10;1.88;;;17.80;90.40;;;;;;4990118;28;20195;-68
2022/11/08 11:21:02;;;;;;;2.00;1.80;;;17.90;90.70;;;;;;4992245;28;20278;-68
2022/11/08 11:23:52;;;;;;;2.13;1.80;;;17.70;90.30;;;;;;4993062;28;20191;-68
2022/11/08 11:26:33;;;;;;;2.22;1.90;;;18.10;90.60;;;;;;5002425;28;20231;-69
2022/11/08 11:29:07;;;;;;;2.97;1.80;;;17.70;90.30;;;;;;4987154;28;20206;-69
2022/11/08 11:31:38;;;;;;;3.45;1.70;;;18.10;89.80;;;;;;4990187;28;20523;-69
2022/11/08 11:34:16;;;;;;;2.33;1.90;;;18.10;90.00;;;;;;4984842;28;20191;-68
2022/11/08 11:36:53;;;;;;;2.53;2.10;;;18.10;90.10;;;;;;4984822;28;20203;-69
2022/11/08 11:39:26;;;;;;;2.05;1.60;;;18.00;90.00;;;;;;4987980;28;20198;-69
2022/11/08 11:42:12;;;;;;;2.40;1.70;;;18.00;90.80;;;;;;4989313;28;20188;-69
2022/11/08 11:45:01;;;;;;;3.10;1.70;;;17.80;90.90;;;;;;4988668;28;20191;-68
2022/11/08 11:47:32;;;;;;;2.05;1.65;;;18.10;91.00;;;;;;4986219;28;20203;-68
2022/11/08 11:50:09;;;;;;;2.75;1.90;;;18.00;91.00;;;;;;4988508;28;20302;-68
2022/11/08 11:52:34;;;;;;;4.97;2.03;;;18.20;91.00;;;;;;4971685;28;20215;-68
2022/11/08 11:55:01;;;;;;;1.87;1.53;;;18.20;90.80;;;;;;4988645;28;20238;-69
2022/11/08 11:57:50;;;;;;;2.00;1.90;;;17.90;90.30;;;;;;4991116;28;20238;-69
2022/11/08 12:00:16;;;;;;;2.42;1.85;;;18.00;90.70;;;;;;4976728;28;20214;-69
2022/11/08 12:02:42;;;;;;;3.57;1.90;;;18.30;91.10;;;;;;4992981;28;20223;-68
2022/11/08 12:05:17;;;;;;;2.40;2.20;;;18.30;90.40;;;;;;4988216;28;20504;-68
2022/11/08 12:07:54;;;;;;;2.90;2.70;;;18.60;90.20;;;;;;4994677;28;20191;-68
2022/11/08 12:10:25;;;;;;;3.17;2.13;;;19.10;89.40;;;;;;4993695;28;20183;-68
2022/11/08 12:12:53;;;;;;;3.75;3.00;;;19.50;86.60;;;;;;4992692;28;20230;-69
2022/11/08 12:15:44;;;;;;;2.50;2.00;;;19.40;85.80;;;;;;4991744;28;20254;-68
2022/11/08 12:18:31;;;;;;;1.83;1.50;;;19.60;81.20;;;;;;4993831;28;20191;-67
2022/11/08 12:21:32;;;;;;;2.13;1.30;;;19.60;80.30;;;;;;4994924;28;20243;-69
2022/11/08 12:24:03;;;;;;;2.88;2.55;;;19.70;78.70;;;;;;4986324;28;20183;-64
2022/11/08 12:26:52;;;;;;;1.40;1.30;;;19.80;80.60;;;;;;4998869;28;20226;-65
2022/11/08 12:29:28;;;;;;;2.35;1.77;;;19.80;77.30;;;;;;4994916;28;20211;-67
2022/11/08 12:32:09;;;;;;;2.10;1.83;;;19.70;75.60;;;;;;4997026;28;20647;-69
2022/11/08 12:34:37;;;;;;;1.80;1.45;;;19.80;76.00;;;;;;4988587;28;20249;-69
2022/11/08 12:37:31;;;;;;;2.05;1.35;;;19.80;75.60;;;;;;4992951;28;20254;-68
2022/11/08 12:40:10;;;;;;;1.55;1.45;;;20.00;75.70;;;;;;4974091;28;20191;-68
2022/11/08 12:42:48;;;;;;;2.55;1.60;;;19.80;74.20;;;;;;4992474;28;20207;-69
2022/11/08 12:45:37;;;;;;;2.38;1.60;;;20.00;74.60;;;;;;4992133;28;20656;-69
2022/11/08 12:48:21;;;;;;;1.60;1.50;;;19.80;74.40;;;;;;4991138;28;20211;-69
2022/11/08 12:51:10;;;;;;;2.35;1.50;;;19.90;75.20;;;;;;4991738;28;20266;-67
2022/11/08 12:53:41;;;;;;;1.88;1.35;;;19.80;75.50;;;;;;4992742;28;20190;-69
2022/11/08 12:56:16;;;;;;;4.57;2.85;;;19.70;74.60;;;;;;4982817;28;20199;-68
2022/11/08 12:58:49;;;;;;;1.60;1.35;;;20.00;76.10;;;;;;4993264;28;20213;-71
2022/11/08 13:01:18;;;;;;;1.88;1.77;;;19.90;75.90;;;;;;5000486;28;20195;-71
2022/11/08 13:03:49;;;;;;;1.58;1.35;;;19.80;75.60;;;;;;4993610;28;20590;-67
2022/11/08 13:06:39;;;;;;;1.85;1.48;;;20.10;77.00;;;;;;4992758;28;20207;-68
2022/11/08 13:09:15;;;;;;;2.65;2.13;;;19.60;75.80;;;;;;4973125;28;20204;-69
2022/11/08 13:11:52;;;;;;;1.52;1.38;;;19.60;77.10;;;;;;4992439;28;20199;-68
2022/11/08 13:14:19;;;;;;;1.75;1.40;;;19.50;77.20;;;;;;4981589;28;20266;-67
2022/11/08 13:17:07;;;;;;;1.70;1.48;;;19.40;77.50;;;;;;5000524;28;20207;-68
2022/11/08 13:19:48;;;;;;;3.10;1.58;;;19.50;78.50;;;;;;4994273;28;20191;-75
2022/11/08 13:22:29;;;;;;;1.50;1.40;;;19.50;77.70;;;;;;4991561;28;20191;-71
2022/11/08 13:24:57;;;;;;;1.50;1.40;;;19.70;78.10;;;;;;4986729;28;20226;-70
2022/11/08 13:27:34;;;;;;;1.30;1.20;;;19.40;77.20;;;;;;4996860;28;20508;-70